WetterOnline ( https://www.wetteronline.de )

Wetter aktuell Leopoldshöhe

Aktuelles Wetter: Bad Lippspringe (158m)

6-stündlich | Neueste Meldungen
Ortszeit Temperatur Wetter
Fr, 27.11. 1:00 5.0° C bewölkt
Do, 26.11. 19:00 5.9° C bedeckt
Do, 26.11. 13:00 9.5° C bedeckt
Do, 26.11. 7:00 7.9° C bedeckt
Do, 26.11. 1:00 6.8° C bedeckt
Mi, 25.11. 19:00 3.2° C wolkig
Mi, 25.11. 13:00 7.7° C leicht bewölkt
Mi, 25.11. 7:00 4.0° C leicht bewölkt
Ortszeit Temperatur Wetter
Fr, 27.11. 4:00 4.0° C bedeckt
Fr, 27.11. 3:50 4.0° C bedeckt
Fr, 27.11. 3:40 3.9° C bewölkt
Fr, 27.11. 3:30 3.7° C bewölkt
Fr, 27.11. 3:20 3.7° C bewölkt
Fr, 27.11. 3:10 3.6° C bedeckt
Fr, 27.11. 3:00 3.4° C bedeckt
Fr, 27.11. 2:30 3.6° C bewölkt
Fr, 27.11. 2:00 4.4° C bedeckt
Fr, 27.11. 1:30 4.4° C bedeckt
Fr, 27.11. 1:00 5.0° C bewölkt
Ortszeit Relative Feuchte Sichtweite
Fr, 27.11. 1:00 92% 20 km
Do, 26.11. 19:00 88% 28 km
Do, 26.11. 13:00 79% 35 km
Do, 26.11. 7:00 84% 26 km
Do, 26.11. 1:00 83% 26 km
Mi, 25.11. 19:00 92% 13 km
Mi, 25.11. 13:00 73% 18 km
Mi, 25.11. 7:00 89% 16 km
Ortszeit Relative Feuchte Sichtweite
Fr, 27.11. 4:00 87% 21 km
Fr, 27.11. 3:50 87% -
Fr, 27.11. 3:40 87% -
Fr, 27.11. 3:30 89% 19 km
Fr, 27.11. 3:20 89% -
Fr, 27.11. 3:10 89% -
Fr, 27.11. 3:00 91% 18 km
Fr, 27.11. 2:30 89% 21 km
Fr, 27.11. 2:00 89% 24 km
Fr, 27.11. 1:30 89% 25 km
Fr, 27.11. 1:00 92% 20 km
Ortszeit Niederschlagsmenge Niederschlagsart
Fr, 27.11. 1:00 0.4 l/m2 in 6 Std. Regen
Do, 26.11. 19:00 0.1 l/m2 in 12 Std. Sprühregen
Do, 26.11. 13:00 0.0 l/m2 in 6 Std. -
Do, 26.11. 7:00 0.1 l/m2 in 12 Std. Regen
Do, 26.11. 1:00 0.0 l/m2 in 6 Std. -
Mi, 25.11. 19:00 0.0 l/m2 in 12 Std. -
Mi, 25.11. 13:00 0.0 l/m2 in 6 Std. -
Mi, 25.11. 7:00 0.0 l/m2 in 12 Std. -
Ortszeit Niederschlagsmenge Niederschlagsart
Fr, 27.11. 4:00 0.0 l/m2 in 1 Std. -
Fr, 27.11. 3:50 keine Meldung -
Fr, 27.11. 3:40 keine Meldung -
Fr, 27.11. 3:30 0.0 l/m2 in 1 Std. -
Fr, 27.11. 3:20 keine Meldung -
Fr, 27.11. 3:10 keine Meldung -
Fr, 27.11. 3:00 0.0 l/m2 in 1 Std. -
Fr, 27.11. 2:30 0.0 l/m2 in 1 Std. -
Fr, 27.11. 2:00 0.0 l/m2 in 1 Std. -
Fr, 27.11. 1:30 0.0 l/m2 in 1 Std. -
Fr, 27.11. 1:00 0.1 l/m2 in 1 Std. Regen
Ortszeit Stärke Spitze Richtung
km/h Bft. km/h Grad Sektor
Fr, 27.11. 1:00 7 2 11 100° O
Do, 26.11. 19:00 6 1 15 130° SO
Do, 26.11. 13:00 4 1 14 170° S
Do, 26.11. 7:00 9 2 13 170° S
Do, 26.11. 1:00 7 2 18 150° SO
Mi, 25.11. 19:00 0 0 22 - -
Mi, 25.11. 13:00 13 3 20 170° S
Mi, 25.11. 7:00 7 2 22 120° SO
Ortszeit Stärke Spitze Richtung
km/h Bft. km/h Grad Sektor
Fr, 27.11. 4:00 7 2 11 110° O
Fr, 27.11. 3:50 7 2 - 110° O
Fr, 27.11. 3:40 7 2 - 110° O
Fr, 27.11. 3:30 7 2 11 120° SO
Fr, 27.11. 3:20 7 2 - 120° SO
Fr, 27.11. 3:10 6 1 - 120° SO
Fr, 27.11. 3:00 4 1 14 110° O
Fr, 27.11. 2:30 7 2 14 120° SO
Fr, 27.11. 2:00 7 2 14 110° O
Fr, 27.11. 1:30 4 1 11 120° SO
Fr, 27.11. 1:00 7 2 11 100° O
Ortszeit Untergrenze Bedeckung Gattung
total tief tief mittel hoch
Fr, 27.11. 1:00 810 m 7/8 7/8 - - -
Do, 26.11. 19:00 1170 m 8/8 8/8 - - -
Do, 26.11. 13:00 780 m 8/8 8/8 - - -
Do, 26.11. 7:00 570 m 8/8 8/8 - - -
Do, 26.11. 1:00 510 m 8/8 8/8 - - -
Mi, 25.11. 19:00 6900 m 6/8 4/8 - - -
Mi, 25.11. 13:00 7500 m 7/8 0/8 - - -
Mi, 25.11. 7:00 9000 m 4/8 0/8 - - -
Ortszeit Bedeckungsgrad in Achtel und Wolkenuntergrenze
Fr, 27.11. 4:00 8(930m)
Fr, 27.11. 3:50 8(930m)
Fr, 27.11. 3:40 7(930m)
Fr, 27.11. 3:30 7(900m)
Fr, 27.11. 3:20 7(900m)
Fr, 27.11. 3:10 8(870m)
Fr, 27.11. 3:00 8(870m)
Fr, 27.11. 2:30 7(900m) 7(1290m)
Fr, 27.11. 2:00 8(960m) 8(1260m)
Fr, 27.11. 1:30 2(780m) 8(990m)
Fr, 27.11. 1:00 4(810m) 7(1020m)
Ortszeit Luftdruck NN (hPa) Tendenz (hPa in 3 Std.)
Fr, 27.11. 1:00 1021 - 0,3
Do, 26.11. 19:00 1021 + 0,1
Do, 26.11. 13:00 1021 - 0,2
Do, 26.11. 7:00 1021 + 0,1
Do, 26.11. 1:00 1020 + 0,7
Mi, 25.11. 19:00 1019 + 0,7
Mi, 25.11. 13:00 1018 + 0,1
Mi, 25.11. 7:00 1018 - 0,6
Ortszeit Luftdruck NN (hPa) Tendenz (hPa in 3 Std.)
Fr, 27.11. 4:00 1021 - 0,5
Fr, 27.11. 3:50 1021 keine Meldung
Fr, 27.11. 3:40 1021 keine Meldung
Fr, 27.11. 3:30 1021 - 0,6
Fr, 27.11. 3:20 1021 keine Meldung
Fr, 27.11. 3:10 1021 keine Meldung
Fr, 27.11. 3:00 1021 - 0,4
Fr, 27.11. 2:30 1021 - 0,4
Fr, 27.11. 2:00 1021 - 0,3
Fr, 27.11. 1:30 1021 - 0,2
Fr, 27.11. 1:00 1021 - 0,3
Ortszeit Schneehöhe (cm)
Fr, 27.11. 1:00 0
Do, 26.11. 19:00 0
Do, 26.11. 13:00 0
Do, 26.11. 7:00 0
Do, 26.11. 1:00 0
Mi, 25.11. 19:00 0
Mi, 25.11. 13:00 0
Mi, 25.11. 7:00 0
Ortszeit Schneehöhe (cm)
Fr, 27.11. 4:00 0
Fr, 27.11. 3:50 0
Fr, 27.11. 3:40 0
Fr, 27.11. 3:30 0
Fr, 27.11. 3:20 0
Fr, 27.11. 3:10 0
Fr, 27.11. 3:00 0
Fr, 27.11. 2:30 0
Fr, 27.11. 2:00 0
Fr, 27.11. 1:30 0
Fr, 27.11. 1:00 0
Link zu dieser Seite / Seite empfehlen

Das Wetter in ...